-10.52C
ясно
ясно
Дата и времяТемператураДавление, мм рт.ст.Влажность, %Осадки
МинимумМаксимум
14.04.2024 08:00-10.04C-8.33C75092облачно с прояснениями
14.04.2024 11:00-7.18C-5.33C75187облачно с прояснениями
14.04.2024 14:00-4.59C-4.59C75382пасмурно
14.04.2024 17:00-5.24C-5.24C75589небольшой снег
14.04.2024 20:00-7.45C-7.45C75689небольшой снег
14.04.2024 23:00-11.58C-11.58C75894облачно с прояснениями
15.04.2024 02:00-14.3C-14.3C75995небольшая облачность
15.04.2024 05:00-16.33C-16.33C76295небольшая облачность
15.04.2024 08:00-12.61C-12.61C76282небольшая облачность
15.04.2024 11:00-8.9C-8.9C76466небольшая облачность
15.04.2024 14:00-6.37C-6.37C76574небольшая облачность
15.04.2024 17:00-6.31C-6.31C76581переменная облачность
15.04.2024 20:00-11.45C-11.45C76591небольшая облачность
15.04.2024 23:00-10.46C-10.46C76689небольшая облачность
16.04.2024 02:00-9.45C-9.45C76588небольшая облачность
16.04.2024 05:00-8.75C-8.75C76588переменная облачность
16.04.2024 08:00-3.05C-3.05C76584облачно с прояснениями
16.04.2024 11:000.89C0.89C76586облачно с прояснениями
16.04.2024 14:002.09C2.09C76490переменная облачность
16.04.2024 17:002.19C2.19C76383небольшая облачность
16.04.2024 20:00-1.03C-1.03C76285небольшая облачность
16.04.2024 23:00-1.72C-1.72C76186небольшая облачность
17.04.2024 02:00-0.31C-0.31C75987пасмурно
17.04.2024 05:000.7C0.7C75687пасмурно
17.04.2024 08:000.72C0.72C75498снег
17.04.2024 11:001.08C1.08C75399небольшой дождь
17.04.2024 14:002.58C2.58C753100небольшой дождь
17.04.2024 17:003.07C3.07C753100пасмурно
17.04.2024 20:001.74C1.74C753100небольшой дождь
17.04.2024 23:00-0.1C-0.1C75396пасмурно
18.04.2024 02:00-2.33C-2.33C75196облачно с прояснениями
18.04.2024 05:000.36C0.36C74896облачно с прояснениями
18.04.2024 08:001.42C1.42C744100дождь
18.04.2024 11:001.24C1.24C743100небольшой дождь
18.04.2024 14:003.93C3.93C74499пасмурно
18.04.2024 17:000.78C0.78C74898небольшой снег
18.04.2024 20:000.95C0.95C75398пасмурно
18.04.2024 23:00-0.74C-0.74C75693небольшой снег
19.04.2024 02:00-4.71C-4.71C75990небольшой снег
19.04.2024 05:00-7.56C-7.56C76289пасмурно
Дата и время наблюдения: 14.04.2024 05:50:34